Time;durP1;ratioP1;P1;durP2;ratioP2;P2;SDS_P1;SDS_P2;PMS_P1;PMS_P2;Temp;Humidity;BMP_temperature;BMP_pressure;BME280_temperature;BME280_humidity;BME280_pressure;Samples;Min_cycle;Max_cycle;Signal;HPM_P1;HPM_P2
2022/05/25 00:00:59;;;;;;;;;3.00;1.00;;;;;16.32;100.00;101172.38;5034681;28;47413;-74
2022/05/25 00:03:25;;;;;;;;;2.67;2.00;;;;;16.33;100.00;101173.28;5037730;28;45303;-74
2022/05/25 00:05:50;;;;;;;;;2.67;2.67;;;;;16.30;100.00;101168.88;5038055;28;45573;-75
2022/05/25 00:08:16;;;;;;;;;2.33;2.00;;;;;16.28;100.00;101169.75;5027355;28;45434;-75
2022/05/25 00:10:42;;;;;;;;;1.00;1.00;;;;;16.24;100.00;101159.13;5030667;28;45563;-76
2022/05/25 00:13:07;;;;;;;;;2.00;2.00;;;;;16.21;100.00;101159.13;5030528;28;45288;-74
2022/05/25 00:15:33;;;;;;;;;2.00;2.00;;;;;16.17;100.00;101159.16;5017966;28;54355;-75
2022/05/25 00:17:59;;;;;;;;;4.67;2.00;;;;;16.12;100.00;101155.66;5018427;28;45328;-75
2022/05/25 00:20:25;;;;;;;;;3.00;3.00;;;;;16.09;100.00;101153.91;5028570;28;46361;-76
2022/05/25 00:22:52;;;;;;;;;3.67;2.00;;;;;16.06;100.00;101151.25;5019891;28;56090;-75
2022/05/25 00:25:30;;;;;;;;;2.67;2.00;;;;;16.03;100.00;101159.25;5018090;28;45290;-75
2022/05/25 00:27:56;;;;;;;;;3.67;2.00;;;;;16.03;100.00;101164.56;5004562;28;45343;-75
2022/05/25 00:30:23;;;;;;;;;2.00;2.00;;;;;16.03;100.00;101169.03;5038012;28;45911;-76
2022/05/25 00:32:48;;;;;;;;;2.00;2.00;;;;;16.01;100.00;101165.50;5019944;28;45306;-75
2022/05/25 00:35:17;;;;;;;;;4.00;3.00;;;;;15.97;100.00;101169.94;5037719;28;45333;-76
2022/05/25 00:37:42;;;;;;;;;4.00;2.00;;;;;15.94;100.00;101169.97;5037998;28;45348;-75
2022/05/25 00:40:11;;;;;;;;;3.00;3.00;;;;;15.90;100.00;101165.56;5036717;28;46383;-75
2022/05/25 00:42:37;;;;;;;;;2.00;2.00;;;;;15.89;100.00;101177.09;5017946;28;45411;-75
2022/05/25 00:45:05;;;;;;;;;3.67;2.00;;;;;15.87;100.00;101174.47;5027893;28;45443;-75
2022/05/25 00:47:31;;;;;;;;;2.00;2.00;;;;;15.85;100.00;101178.88;5022345;28;45639;-75
2022/05/25 00:49:56;;;;;;;;;3.00;3.00;;;;;15.82;100.00;101175.34;5026087;28;46528;-75
2022/05/25 00:52:22;;;;;;;;;3.00;3.00;;;;;15.84;100.00;101186.91;5017512;28;45298;-75
2022/05/25 00:54:51;;;;;;;;;1.00;1.00;;;;;15.82;100.00;101186.00;5002747;28;45349;-74
2022/05/25 00:57:46;;;;;;;;;2.00;2.00;;;;;15.81;100.00;101178.91;5009886;28;45918;-75
2022/05/25 01:00:23;;;;;;;;;1.00;1.00;;;;;15.80;100.00;101185.13;4998558;28;47465;-75
2022/05/25 01:02:53;;;;;;;;;2.00;2.00;;;;;15.79;100.00;101189.56;5037306;28;45546;-74
2022/05/25 01:05:21;;;;;;;;;1.00;1.00;;;;;15.78;100.00;101190.47;5037573;28;45278;-76
2022/05/25 01:08:14;;;;;;;;;2.00;1.00;;;;;15.77;100.00;101194.03;5037371;28;45185;-76
2022/05/25 01:10:45;;;;;;;;;1.00;1.00;;;;;15.78;100.00;101190.47;5021754;28;47330;-75
2022/05/25 01:13:28;;;;;;;;;2.00;2.00;;;;;15.76;100.00;101197.56;5017362;28;45574;-74
2022/05/25 01:16:09;;;;;;;;;1.00;1.00;;;;;15.74;100.00;101194.03;5028765;28;45307;-74
2022/05/25 01:18:54;;;;;;;;;1.00;1.00;;;;;15.74;100.00;101202.03;5018668;28;45269;-75
2022/05/25 01:21:22;;;;;;;;;2.67;1.67;;;;;15.73;100.00;101208.25;5005736;28;47332;-75
2022/05/25 01:24:07;;;;;;;;;6.33;1.67;;;;;15.70;100.00;101208.25;5037296;28;45230;-77
2022/05/25 01:26:38;;;;;;;;;1.00;1.00;;;;;15.69;100.00;101203.81;5037223;28;45506;-75
2022/05/25 01:29:20;;;;;;;;;1.67;1.67;;;;;15.68;100.00;101207.38;5022166;28;45514;-75
2022/05/25 01:31:51;;;;;;;;;1.00;1.00;;;;;15.66;100.00;101212.72;5024005;28;51121;-75
2022/05/25 01:34:23;;;;;;;;;1.00;1.00;;;;;15.64;100.00;101216.25;5036565;28;45552;-75
2022/05/25 01:36:52;;;;;;;;;1.00;1.00;;;;;15.60;100.00;101215.34;5036346;28;45385;-76
2022/05/25 01:39:23;;;;;;;;;1.00;1.00;;;;;15.57;100.00;101218.03;5037258;28;45483;-74
2022/05/25 01:41:51;;;;;;;;;2.00;0.67;;;;;15.53;100.00;101216.25;5026302;28;46582;-75
2022/05/25 01:44:23;;;;;;;;;1.67;1.67;;;;;15.53;100.00;101221.59;5027879;28;45535;-75
2022/05/25 01:46:52;;;;;;;;;1.00;1.00;;;;;15.53;100.00;101223.38;5011985;28;45447;-75
2022/05/25 01:49:35;;;;;;;;;3.00;2.00;;;;;15.49;100.00;101225.13;5019462;28;45356;-76
2022/05/25 01:52:04;;;;;;;;;2.33;1.00;;;;;15.46;100.00;101220.72;5018554;28;46413;-74
2022/05/25 01:54:32;;;;;;;;;1.00;1.00;;;;;15.44;100.00;101222.47;5018954;28;45377;-74
2022/05/25 01:57:02;;;;;;;;;1.00;1.00;;;;;15.44;100.00;101230.47;5035751;28;45376;-74
2022/05/25 01:59:28;;;;;;;;;2.33;1.00;;;;;15.42;100.00;101223.38;5017704;28;45503;-74
2022/05/25 02:04:44;;;;;;;;;2.00;2.00;;;;;15.42;100.00;101224.28;5032981;28;45301;-74
2022/05/25 02:07:43;;;;;;;;;1.67;1.67;;;;;15.43;100.00;101235.81;5016639;28;45457;-74
2022/05/25 02:10:20;;;;;;;;;1.00;1.00;;;;;15.42;100.00;101232.25;4988077;28;45513;-76
2022/05/25 02:13:23;;;;;;;;;1.00;1.00;;;;;15.40;100.00;101233.16;5022089;28;47351;-76
2022/05/25 02:16:17;;;;;;;;;2.00;2.00;;;;;15.37;100.00;101225.19;5018457;28;46884;-74
2022/05/25 02:19:05;;;;;;;;;3.33;2.00;;;;;15.37;100.00;101231.38;5016543;28;45293;-75
2022/05/25 02:21:53;;;;;;;;;1.00;1.00;;;;;15.36;100.00;101236.72;5025764;28;45654;-74
2022/05/25 02:24:28;;;;;;;;;5.00;2.00;;;;;15.36;100.00;101237.59;5018314;28;46646;-73
2022/05/25 02:27:01;;;;;;;;;2.67;2.00;;;;;15.36;100.00;101244.69;5018701;28;45428;-75
2022/05/25 02:29:32;;;;;;;;;1.00;1.00;;;;;15.35;100.00;101237.63;5036348;28;45553;-74
2022/05/25 02:32:05;;;;;;;;;1.00;1.00;;;;;15.34;100.00;101238.47;5000647;28;45509;-74
2022/05/25 02:34:32;;;;;;;;;1.33;1.33;;;;;15.34;100.00;101242.06;5016323;28;47763;-74
2022/05/25 02:36:58;;;;;;;;;0.33;0.33;;;;;15.32;100.00;101240.25;5034833;28;48994;-74
2022/05/25 02:39:24;;;;;;;;;1.00;1.00;;;;;15.30;100.00;101242.94;5018828;28;45457;-75
2022/05/25 02:41:55;;;;;;;;;1.67;1.67;;;;;15.27;100.00;101242.94;5030531;28;45305;-75
2022/05/25 02:44:21;;;;;;;;;1.00;1.00;;;;;15.27;100.00;101252.69;5031383;28;46485;-75
2022/05/25 02:46:47;;;;;;;;;1.67;1.67;;;;;15.25;100.00;101257.13;5029258;28;45352;-74
2022/05/25 02:49:12;;;;;;;;;3.00;2.00;;;;;15.24;100.00;101263.34;4998836;28;45183;-75
2022/05/25 02:51:38;;;;;;;;;5.00;2.00;;;;;15.23;100.00;101265.09;5016136;28;45556;-74
2022/05/25 02:54:05;;;;;;;;;2.00;2.00;;;;;15.23;100.00;101266.88;5022853;28;46579;-75
2022/05/25 02:56:30;;;;;;;;;4.33;2.00;;;;;15.23;100.00;101258.91;5035654;28;45930;-74
2022/05/25 02:58:55;;;;;;;;;1.00;1.00;;;;;15.20;100.00;101263.34;5035671;28;45335;-75
2022/05/25 03:01:21;;;;;;;;;2.00;2.00;;;;;15.18;100.00;101267.78;5031064;28;58593;-76
2022/05/25 03:03:46;;;;;;;;;1.00;1.00;;;;;15.19;100.00;101266.91;5038385;28;46702;-74
2022/05/25 03:06:12;;;;;;;;;3.67;3.00;;;;;15.18;100.00;101272.22;5038806;28;60424;-75
2022/05/25 03:08:38;;;;;;;;;2.33;2.33;;;;;15.17;100.00;101268.66;5025153;28;45341;-75
2022/05/25 03:11:04;;;;;;;;;2.00;2.00;;;;;15.19;100.00;101284.63;5021813;28;45580;-76
2022/05/25 03:13:30;;;;;;;;;2.67;2.67;;;;;15.17;100.00;101281.94;5039344;28;45526;-75
2022/05/25 03:16:00;;;;;;;;;3.00;3.00;;;;;15.18;100.00;101281.09;5038649;28;45238;-75
2022/05/25 03:18:25;;;;;;;;;3.67;3.67;;;;;15.17;100.00;101287.28;5021099;28;45488;-74
2022/05/25 03:20:51;;;;;;;;;3.00;3.00;;;;;15.17;100.00;101287.28;5019147;28;45435;-75
2022/05/25 03:23:17;;;;;;;;;5.00;4.00;;;;;15.16;100.00;101293.50;5026750;28;45531;-75
2022/05/25 03:25:43;;;;;;;;;4.00;4.00;;;;;15.15;100.00;101291.72;5038761;28;45331;-75
2022/05/25 03:28:09;;;;;;;;;3.00;3.00;;;;;15.15;100.00;101296.16;5038207;28;45467;-74
2022/05/25 03:30:34;;;;;;;;;3.00;3.00;;;;;15.13;100.00;101304.16;5018855;28;46825;-74
2022/05/25 03:33:00;;;;;;;;;3.33;3.00;;;;;15.12;100.00;101304.13;5018739;28;45716;-74
2022/05/25 03:35:25;;;;;;;;;3.67;3.00;;;;;15.12;100.00;101312.09;5025869;28;45552;-76
2022/05/25 03:37:51;;;;;;;;;3.00;3.00;;;;;15.10;100.00;101314.78;5038967;28;45252;-74
2022/05/25 03:40:16;;;;;;;;;4.00;4.00;;;;;15.15;100.00;101314.78;5038913;28;45319;-74
2022/05/25 03:42:43;;;;;;;;;3.00;3.00;;;;;15.16;100.00;101325.41;5038046;28;56411;-74
2022/05/25 03:45:09;;;;;;;;;3.00;3.00;;;;;15.19;100.00;101321.88;5027613;28;45351;-75
2022/05/25 03:47:34;;;;;;;;;3.00;3.00;;;;;15.23;100.00;101333.38;5018848;28;45332;-74
2022/05/25 03:50:00;;;;;;;;;4.00;4.00;;;;;15.24;100.00;101332.53;5020778;28;51569;-76
2022/05/25 03:52:26;;;;;;;;;4.00;4.00;;;;;15.24;100.00;101336.06;5029083;28;46248;-74
2022/05/25 03:54:51;;;;;;;;;2.33;2.33;;;;;15.23;100.00;101330.72;5018540;28;45427;-75
2022/05/25 03:57:17;;;;;;;;;2.33;2.33;;;;;15.22;100.00;101336.94;5029541;28;45499;-75
2022/05/25 03:59:42;;;;;;;;;3.00;3.00;;;;;15.22;100.00;101337.81;5028742;28;45439;-75
2022/05/25 04:02:08;;;;;;;;;2.33;2.33;;;;;15.24;100.00;101345.81;5036621;28;64940;-75
2022/05/25 04:04:33;;;;;;;;;3.33;3.00;;;;;15.25;100.00;101336.94;5038622;28;45379;-72
2022/05/25 04:06:59;;;;;;;;;4.33;3.33;;;;;15.24;100.00;101336.06;5036115;28;57091;-75
2022/05/25 04:09:24;;;;;;;;;3.00;3.00;;;;;15.24;100.00;101340.50;5023059;28;45349;-76
2022/05/25 04:11:50;;;;;;;;;2.00;2.00;;;;;15.24;100.00;101340.50;5018449;28;47365;-76
2022/05/25 04:14:15;;;;;;;;;2.00;2.00;;;;;15.24;100.00;101344.03;5028353;28;56999;-74
2022/05/25 04:16:42;;;;;;;;;3.67;2.67;;;;;15.23;100.00;101344.91;5027196;28;45268;-77
2022/05/25 04:19:08;;;;;;;;;2.00;2.00;;;;;15.23;100.00;101342.25;5022046;28;45446;-76
2022/05/25 04:21:34;;;;;;;;;2.67;2.00;;;;;15.25;100.00;101344.94;5017736;28;63121;-76
2022/05/25 04:24:00;;;;;;;;;3.33;3.00;;;;;15.24;100.00;101346.72;5018463;28;45403;-75
2022/05/25 04:26:26;;;;;;;;;5.00;2.00;;;;;15.23;100.00;101346.69;5025319;28;45466;-76
2022/05/25 04:28:51;;;;;;;;;2.00;2.00;;;;;15.24;100.00;101349.38;5037279;28;45368;-75
2022/05/25 04:31:16;;;;;;;;;7.00;4.00;;;;;15.24;100.00;101348.47;5025341;28;62872;-75
2022/05/25 04:33:42;;;;;;;;;2.33;2.33;;;;;15.24;100.00;101354.69;5018038;28;45341;-75
2022/05/25 04:36:07;;;;;;;;;3.67;3.33;;;;;15.25;100.00;101361.78;5021487;28;45480;-74
2022/05/25 04:38:33;;;;;;;;;2.67;2.67;;;;;15.28;100.00;101356.44;5018161;28;45621;-73
2022/05/25 04:40:58;;;;;;;;;4.00;4.00;;;;;15.31;100.00;101371.53;5017714;28;49767;-73
2022/05/25 04:43:24;;;;;;;;;2.67;2.67;;;;;15.31;100.00;101366.22;5020785;28;45340;-73
2022/05/25 04:45:52;;;;;;;;;3.00;3.00;;;;;15.33;100.00;101377.72;5032561;28;45397;-73
2022/05/25 04:48:23;;;;;;;;;4.00;4.00;;;;;15.33;100.00;101369.75;5017614;28;45632;-72
2022/05/25 04:50:49;;;;;;;;;3.00;3.00;;;;;15.32;100.00;101370.63;5028659;28;47419;-76
2022/05/25 04:53:17;;;;;;;;;3.67;3.33;;;;;15.32;100.00;101376.84;5018475;28;45353;-73
2022/05/25 04:58:29;;;;;;;;;2.67;2.00;;;;;15.30;100.00;101388.38;5025653;28;45601;-73
2022/05/25 05:00:55;;;;;;;;;3.67;3.67;;;;;15.27;100.00;101391.03;5020795;28;46583;-73
2022/05/25 05:03:21;;;;;;;;;3.67;3.33;;;;;15.27;100.00;101388.38;5026785;28;45394;-77
2022/05/25 05:05:47;;;;;;;;;6.00;4.33;;;;;15.28;100.00;101395.47;5036082;28;45515;-78
2022/05/25 05:08:13;;;;;;;;;3.00;3.00;;;;;15.29;100.00;101382.19;5030473;28;45475;-78
2022/05/25 05:10:39;;;;;;;;;4.33;4.00;;;;;15.32;100.00;101397.25;5032129;28;46627;-78
2022/05/25 05:13:07;;;;;;;;;4.33;4.33;;;;;15.32;100.00;101400.78;5028787;28;62484;-76
2022/05/25 05:15:36;;;;;;;;;4.00;4.00;;;;;15.34;100.00;101408.75;5033333;28;46343;-76
2022/05/25 05:18:02;;;;;;;;;5.33;4.00;;;;;15.36;100.00;101407.91;5030508;28;45461;-76
2022/05/25 05:20:28;;;;;;;;;4.00;4.00;;;;;15.39;100.00;101412.31;5032629;28;46499;-77
2022/05/25 05:22:54;;;;;;;;;5.00;5.00;;;;;15.40;100.00;101417.66;5031390;28;45394;-76
2022/05/25 05:25:20;;;;;;;;;6.67;5.33;;;;;15.40;100.00;101404.34;5031987;28;49172;-77
2022/05/25 05:27:45;;;;;;;;;5.00;5.00;;;;;15.45;100.00;101409.69;5029890;28;45436;-77
2022/05/25 05:30:12;;;;;;;;;7.00;4.00;;;;;15.46;100.00;101409.69;5027667;28;64728;-77
2022/05/25 05:32:38;;;;;;;;;4.00;4.00;;;;;15.51;100.00;101414.13;5027693;28;45573;-78
2022/05/25 05:35:04;;;;;;;;;6.00;4.00;;;;;15.54;100.00;101399.00;5033450;28;45456;-76
2022/05/25 05:37:34;;;;;;;;;4.00;4.00;;;;;15.57;100.00;101395.47;5027115;28;45545;-77
2022/05/25 05:40:02;;;;;;;;;3.67;3.00;;;;;15.60;100.00;101391.03;5026522;28;46590;-77
2022/05/25 05:42:27;;;;;;;;;5.00;5.00;;;;;15.53;100.00;101391.94;5029278;28;45661;-76
2022/05/25 05:44:59;;;;;;;;;6.33;4.00;;;;;15.44;100.00;101383.94;5029411;28;45337;-76
2022/05/25 05:47:29;;;;;;;;;4.00;4.00;;;;;15.36;100.00;101389.28;5032840;28;45468;-78
2022/05/25 05:49:54;;;;;;;;;3.00;3.00;;;;;15.30;100.00;101388.38;5030461;28;46239;-77
2022/05/25 05:52:23;;;;;;;;;3.00;3.00;;;;;15.27;100.00;101399.00;5034558;28;45620;-77
2022/05/25 05:54:48;;;;;;;;;3.33;2.00;;;;;15.24;100.00;101396.38;5013421;28;45519;-79
2022/05/25 05:57:14;;;;;;;;;3.67;3.67;;;;;15.22;100.00;101399.00;5035342;28;55132;-76
2022/05/25 05:59:39;;;;;;;;;3.00;3.00;;;;;15.16;100.00;101399.88;5020369;28;45462;-76
2022/05/25 06:02:06;;;;;;;;;4.00;3.00;;;;;15.13;100.00;101399.91;5028902;28;45330;-76
2022/05/25 06:04:31;;;;;;;;;2.00;2.00;;;;;15.12;100.00;101408.75;5019804;28;45596;-76
2022/05/25 06:06:57;;;;;;;;;3.33;3.00;;;;;15.12;100.00;101413.19;5033898;28;45512;-76
2022/05/25 06:09:22;;;;;;;;;2.00;2.00;;;;;15.11;100.00;101420.28;5022989;28;63264;-77
2022/05/25 06:11:49;;;;;;;;;5.00;2.00;;;;;15.10;100.00;101423.81;5029431;28;45618;-76
2022/05/25 06:14:14;;;;;;;;;3.00;3.00;;;;;15.12;100.00;101431.78;5030921;28;57953;-77
2022/05/25 06:19:26;;;;;;;;;5.00;3.33;;;;;15.12;100.00;101429.13;5034694;28;45769;-77
2022/05/25 06:21:59;;;;;;;;;5.00;3.00;;;;;15.11;100.00;101428.25;5025135;28;45666;-77
2022/05/25 06:24:26;;;;;;;;;2.33;2.33;;;;;15.12;100.00;101435.34;5125892;22;45560;-76
2022/05/25 06:26:51;;;;;;;;;2.33;2.33;;;;;15.11;100.00;101440.66;4977268;28;46493;-78
2022/05/25 06:29:17;;;;;;;;;3.00;1.67;;;;;15.10;100.00;101439.78;4981624;28;51762;-76
2022/05/25 06:31:43;;;;;;;;;3.67;2.33;;;;;15.14;100.00;101440.69;4986819;28;45530;-77
2022/05/25 06:34:09;;;;;;;;;3.00;3.00;;;;;15.19;100.00;101457.53;4989042;28;49701;-76
2022/05/25 06:36:34;;;;;;;;;3.00;1.00;;;;;15.22;100.00;101456.66;4984865;28;45877;-77
2022/05/25 06:39:00;;;;;;;;;2.33;2.33;;;;;15.24;100.00;101452.25;4979658;28;46449;-77
2022/05/25 06:41:25;;;;;;;;;2.33;2.33;;;;;15.24;100.00;101468.19;4977705;28;45596;-77
2022/05/25 06:43:51;;;;;;;;;5.67;3.33;;;;;15.27;100.00;101468.19;4979044;28;45477;-79
2022/05/25 06:46:20;;;;;;;;;1.67;1.67;;;;;15.28;100.00;101469.97;4977959;28;46465;-79
2022/05/25 06:48:51;;;;;;;;;3.33;2.00;;;;;15.29;100.00;101475.31;4967193;28;47174;-79
2022/05/25 06:51:29;;;;;;;;;2.33;1.00;;;;;15.34;100.00;101476.19;4978662;28;45295;-78
2022/05/25 06:53:55;;;;;;;;;1.00;1.00;;;;;15.38;100.00;101464.66;4986556;28;45546;-78
2022/05/25 06:56:23;;;;;;;;;0.00;0.00;;;;;15.42;100.00;101476.19;4964404;28;45727;-77
2022/05/25 06:58:49;;;;;;;;;2.00;1.00;;;;;15.44;100.00;101471.75;4978150;28;46674;-78
2022/05/25 07:01:14;;;;;;;;;1.00;1.00;;;;;15.50;100.00;101477.13;4989542;28;45527;-78
2022/05/25 07:03:40;;;;;;;;;3.00;0.00;;;;;15.55;100.00;101479.75;4984542;28;45361;-77
2022/05/25 07:06:07;;;;;;;;;3.33;1.00;;;;;15.60;100.00;101484.19;4987827;28;45472;-79
2022/05/25 07:08:32;;;;;;;;;4.00;1.00;;;;;15.65;100.00;101474.47;4990506;28;46732;-78
2022/05/25 07:10:58;;;;;;;;;1.00;1.00;;;;;15.72;100.00;101483.38;4978880;28;45490;-79
2022/05/25 07:13:24;;;;;;;;;2.00;1.00;;;;;15.76;100.00;101474.47;4963279;28;45473;-78
2022/05/25 07:15:54;;;;;;;;;3.00;0.67;;;;;15.80;100.00;101486.91;4986935;28;45555;-78
2022/05/25 07:18:20;;;;;;;;;2.00;1.00;;;;;15.83;100.00;101480.72;4987213;28;47083;-78
2022/05/25 07:20:45;;;;;;;;;2.00;1.33;;;;;15.88;100.00;101492.25;4981812;28;45484;-79
2022/05/25 07:23:10;;;;;;;;;1.00;1.00;;;;;15.93;100.00;101507.34;4987634;28;56500;-78
2022/05/25 07:25:36;;;;;;;;;1.00;1.00;;;;;15.97;100.00;101505.53;4987554;28;45507;-76
2022/05/25 07:28:01;;;;;;;;;1.00;1.00;;;;;16.04;100.00;101519.78;4983872;28;53874;-80
2022/05/25 07:30:28;;;;;;;;;2.00;0.67;;;;;16.07;100.00;101520.63;4974535;28;45227;-78
2022/05/25 07:32:54;;;;;;;;;1.00;0.00;;;;;16.10;100.00;101511.75;4966592;28;46423;-79
2022/05/25 07:35:21;;;;;;;;;1.00;1.00;;;;;16.15;100.00;101510.88;4988920;28;45579;-78
2022/05/25 07:37:50;;;;;;;;;2.00;0.67;;;;;16.19;100.00;101504.66;4987169;28;46721;-79
2022/05/25 07:40:25;;;;;;;;;1.00;1.00;;;;;16.22;100.00;101503.75;4981692;28;45670;-79
2022/05/25 07:42:55;;;;;;;;;2.00;1.00;;;;;16.27;100.00;101517.06;4977515;28;45496;-79
2022/05/25 07:45:21;;;;;;;;;0.00;0.00;;;;;16.30;100.00;101517.03;4970623;28;45577;-80
2022/05/25 07:47:46;;;;;;;;;2.00;0.00;;;;;16.36;100.00;101515.28;4987258;28;47313;-79
2022/05/25 07:50:12;;;;;;;;;0.00;0.00;;;;;16.44;100.00;101517.91;4985867;28;60729;-79
2022/05/25 07:52:39;;;;;;;;;2.00;1.00;;;;;16.53;100.00;101520.56;4976409;28;45657;-81
2022/05/25 07:55:08;;;;;;;;;0.00;0.00;;;;;16.60;100.00;101517.00;4964032;28;45570;-80
2022/05/25 07:57:34;;;;;;;;;0.00;0.00;;;;;16.68;100.00;101530.31;4978589;28;46795;-80
2022/05/25 08:00:00;;;;;;;;;0.00;0.00;;;;;16.71;100.00;101527.66;4982394;28;45449;-80
2022/05/25 08:08:03;;;;;;;;;1.00;0.00;;;;;16.76;100.00;101526.75;4986670;28;45530;-80
2022/05/25 08:10:28;;;;;;;;;0.00;0.00;;;;;16.83;100.00;101529.38;4976386;28;45413;-80
2022/05/25 08:12:56;;;;;;;;;0.00;0.00;;;;;16.85;100.00;101528.50;4966803;28;45538;-78
2022/05/25 08:15:22;;;;;;;;;0.00;0.00;;;;;16.86;100.00;101529.38;4985895;28;45309;-80
2022/05/25 08:17:48;;;;;;;;;2.00;0.00;;;;;16.87;100.00;101533.81;4964813;28;46748;-79
2022/05/25 08:20:14;;;;;;;;;0.00;0.00;;;;;16.87;100.00;101534.72;4982560;28;45364;-79
2022/05/25 08:22:40;;;;;;;;;0.00;0.00;;;;;16.90;100.00;101539.16;4984695;28;45388;-79
2022/05/25 08:25:08;;;;;;;;;1.33;0.00;;;;;16.93;100.00;101525.78;4962294;28;45465;-76
2022/05/25 08:27:39;;;;;;;;;0.00;0.00;;;;;16.99;100.00;101529.34;4984234;28;46264;-76
2022/05/25 08:30:06;;;;;;;;;0.00;0.00;;;;;17.05;98.54;101522.22;4990902;28;45484;-77
2022/05/25 08:32:31;;;;;;;;;1.00;0.00;;;;;17.08;99.82;101524.84;4981855;28;45497;-78
2022/05/25 08:34:57;;;;;;;;;0.00;0.00;;;;;17.13;98.67;101531.94;4984198;28;45500;-78
2022/05/25 08:37:25;;;;;;;;;0.00;0.00;;;;;17.15;92.43;101532.84;4986098;28;64892;-80
2022/05/25 08:39:50;;;;;;;;;0.33;0.00;;;;;17.22;94.91;101536.34;4982825;28;52942;-79
2022/05/25 08:42:20;;;;;;;;;2.00;0.00;;;;;17.23;91.64;101544.34;4975312;28;45327;-78
2022/05/25 08:44:47;;;;;;;;;3.33;0.00;;;;;17.26;91.83;101543.47;4982217;28;45548;-77
2022/05/25 08:47:12;;;;;;;;;1.00;0.00;;;;;17.27;90.41;101543.44;4959483;28;47747;-79
2022/05/25 08:49:43;;;;;;;;;1.00;1.00;;;;;17.32;94.94;101539.88;4977302;28;45517;-78
2022/05/25 08:52:33;;;;;;;;;1.00;1.00;;;;;17.38;91.42;101531.81;4992163;28;45547;-77
2022/05/25 08:55:00;;;;;;;;;1.67;0.33;;;;;17.41;93.44;101546.00;4995054;28;45548;-78
2022/05/25 08:57:33;;;;;;;;;0.00;0.00;;;;;17.42;90.35;101539.81;4961904;28;46621;-78
2022/05/25 09:00:09;;;;;;;;;0.00;0.00;;;;;17.45;91.26;101542.44;4975008;28;45416;-78
2022/05/25 09:02:59;;;;;;;;;0.00;0.00;;;;;17.50;92.36;101550.44;5111237;22;45608;-77
2022/05/25 09:05:42;;;;;;;;;1.00;0.00;;;;;17.55;92.40;101557.50;5053785;28;45457;-77
2022/05/25 09:08:32;;;;;;;;;1.00;0.00;;;;;17.59;91.15;101550.38;5036354;28;46559;-77
2022/05/25 09:11:02;;;;;;;;;0.00;0.00;;;;;17.64;91.91;101556.59;5046806;28;45784;-78
2022/05/25 09:13:41;;;;;;;;;1.33;0.00;;;;;17.66;90.32;101554.78;5033870;28;47201;-79
2022/05/25 09:16:15;;;;;;;;;2.00;0.00;;;;;17.71;91.04;101552.97;5050349;28;45526;-77
2022/05/25 09:19:11;;;;;;;;;0.00;0.00;;;;;17.77;92.10;101536.03;5035944;28;46720;-76
2022/05/25 09:21:52;;;;;;;;;0.00;0.00;;;;;17.83;89.71;101535.09;5038897;28;45609;-77
2022/05/25 09:24:23;;;;;;;;;0.00;0.00;;;;;17.87;87.19;101537.75;5049093;28;46334;-79
2022/05/25 09:26:49;;;;;;;;;0.00;0.00;;;;;17.90;86.08;101539.53;5054360;28;45653;-77
2022/05/25 09:29:14;;;;;;;;;0.00;0.00;;;;;17.93;85.78;101539.47;5031337;28;47392;-77
2022/05/25 09:31:47;;;;;;;;;0.00;0.00;;;;;17.97;88.94;101546.56;5048201;28;60374;-77
2022/05/25 09:34:23;;;;;;;;;0.00;0.00;;;;;18.02;89.34;101542.06;5033802;28;45423;-77
2022/05/25 09:36:52;;;;;;;;;0.00;0.00;;;;;18.04;87.84;101532.25;5051744;28;45494;-78
2022/05/25 09:39:23;;;;;;;;;0.00;0.00;;;;;18.07;88.63;101537.59;5037370;28;45467;-78
2022/05/25 09:41:54;;;;;;;;;0.00;0.00;;;;;18.11;86.74;101539.34;5034274;28;45458;-77
2022/05/25 09:44:20;;;;;;;;;0.00;0.00;;;;;18.15;88.51;101535.72;5052511;28;45495;-78
2022/05/25 09:46:50;;;;;;;;;1.00;1.00;;;;;18.23;89.54;101541.00;5052344;28;45540;-77
2022/05/25 09:49:34;;;;;;;;;0.00;0.00;;;;;18.31;88.39;101557.84;5053121;28;47633;-78
2022/05/25 09:52:02;;;;;;;;;0.00;0.00;;;;;18.32;86.85;101565.88;5047263;28;45519;-78
2022/05/25 09:54:33;;;;;;;;;1.67;0.33;;;;;18.35;87.52;101564.06;5035789;28;45490;-79
2022/05/25 09:57:21;;;;;;;;;0.00;0.00;;;;;18.36;87.58;101548.00;5049224;28;45650;-75
2022/05/25 10:00:03;;;;;;;;;0.00;0.00;;;;;18.39;86.82;101547.09;5051422;28;47084;-78
2022/05/25 10:02:48;;;;;;;;;0.33;0.00;;;;;18.42;87.75;101547.03;5052106;28;45525;-76
2022/05/25 10:05:27;;;;;;;;;2.00;1.00;;;;;18.50;87.69;101547.88;5050930;28;45625;-77
2022/05/25 10:08:17;;;;;;;;;0.00;0.00;;;;;18.57;87.31;101541.53;5032768;28;45544;-78
2022/05/25 10:10:55;;;;;;;;;0.00;0.00;;;;;18.61;85.95;101554.00;5038521;28;47621;-75
2022/05/25 10:13:23;;;;;;;;;0.00;0.00;;;;;18.64;86.82;101553.94;5052491;28;45485;-77
2022/05/25 10:15:51;;;;;;;;;1.33;0.00;;;;;18.67;84.44;101555.72;5039960;28;45554;-76
2022/05/25 10:18:17;;;;;;;;;0.33;0.33;;;;;18.72;85.81;101565.50;5038367;28;45699;-74
2022/05/25 10:20:42;;;;;;;;;0.00;0.00;;;;;18.78;84.45;101560.06;5039934;28;45465;-76
2022/05/25 10:23:12;;;;;;;;;1.00;0.33;;;;;18.84;85.41;101559.13;5058006;28;45477;-78
2022/05/25 10:25:44;;;;;;;;;0.33;0.33;;;;;18.88;84.82;101557.28;5042306;28;45578;-79
2022/05/25 10:28:22;;;;;;;;;0.00;0.00;;;;;18.93;84.41;101553.66;5057203;28;45517;-77
2022/05/25 10:36:49;;;;;;;;;2.00;2.00;;;;;19.09;80.14;101549.00;5038342;28;45512;-75
2022/05/25 10:39:35;;;;;;;;;0.00;0.00;;;;;19.22;82.52;101545.25;5057846;28;45516;-76
2022/05/25 10:42:02;;;;;;;;;0.67;0.67;;;;;19.30;81.79;101537.13;5054648;28;47547;-75
2022/05/25 10:45:00;;;;;;;;;0.00;0.00;;;;;19.35;79.75;101544.19;5059079;28;45320;-75
2022/05/25 10:47:50;;;;;;;;;0.00;0.00;;;;;19.41;80.04;101543.22;5053495;28;45202;-75
2022/05/25 10:50:32;;;;;;;;;0.00;0.00;;;;;19.44;78.30;101539.59;5045829;28;45307;-75
2022/05/25 10:53:02;;;;;;;;;0.00;0.00;;;;;19.53;78.79;101531.44;5004776;28;46701;-75
2022/05/25 10:55:34;;;;;;;;;0.00;0.00;;;;;19.67;78.47;101542.88;5039019;28;45420;-75
2022/05/25 10:58:31;;;;;;;;;0.00;0.00;;;;;19.78;77.33;101545.38;5024307;28;45349;-75
2022/05/25 11:01:05;;;;;;;;;0.33;0.33;;;;;19.84;75.66;101539.94;5050074;28;45513;-75
2022/05/25 11:04:03;;;;;;;;;1.00;0.00;;;;;19.89;73.85;101552.34;5044637;28;46221;-75
2022/05/25 11:06:52;;;;;;;;;0.00;0.00;;;;;20.01;76.89;101537.84;5036012;28;45554;-74
2022/05/25 11:09:29;;;;;;;;;0.00;0.00;;;;;20.18;75.91;101547.41;5039854;28;45514;-74
2022/05/25 11:12:32;;;;;;;;;0.00;0.00;;;;;20.37;76.02;101548.84;5047692;28;45625;-76
2022/05/25 11:15:10;;;;;;;;;0.00;0.00;;;;;20.53;75.37;101546.81;5053775;28;47242;-75
2022/05/25 11:17:57;;;;;;;;;0.00;0.00;;;;;20.58;74.09;101543.13;5056873;28;45316;-75
2022/05/25 11:20:35;;;;;;;;;0.00;0.00;;;;;20.78;76.38;101547.22;5052460;28;45534;-75
2022/05/25 11:23:29;;;;;;;;;0.00;0.00;;;;;21.00;75.41;101540.50;5055976;28;45521;-75
2022/05/25 11:26:31;;;;;;;;;0.00;0.00;;;;;21.09;73.00;101539.41;5040026;28;46507;-74
2022/05/25 11:29:15;;;;;;;;;0.00;0.00;;;;;21.05;72.13;101538.63;5055725;28;45412;-75
2022/05/25 11:31:46;;;;;;;;;0.00;0.00;;;;;21.09;70.43;101544.78;5057834;28;45536;-76
2022/05/25 11:34:15;;;;;;;;;0.00;0.00;;;;;21.21;70.65;101552.59;5052278;28;45231;-74
2022/05/25 11:36:49;;;;;;;;;2.33;0.00;;;;;21.32;69.21;101545.22;5056007;28;47687;-75
2022/05/25 11:39:14;;;;;;;;;0.00;0.00;;;;;21.46;70.35;101539.50;5055847;28;45362;-76
2022/05/25 11:41:57;;;;;;;;;0.00;0.00;;;;;21.51;70.36;101548.34;5057748;28;45283;-74
2022/05/25 11:45:00;;;;;;;;;0.00;0.00;;;;;21.50;68.82;101548.41;5037214;28;47112;-75
2022/05/25 11:47:55;;;;;;;;;1.00;0.00;;;;;21.57;69.30;101537.50;5050771;28;47301;-75
2022/05/25 11:50:39;;;;;;;;;1.00;0.00;;;;;21.61;69.57;101531.09;5053184;28;45355;-74
2022/05/25 11:53:15;;;;;;;;;0.00;0.00;;;;;21.54;70.53;101532.19;5051137;28;45478;-77
2022/05/25 11:56:07;;;;;;;;;0.00;0.00;;;;;21.63;70.35;101542.72;5056445;28;45265;-75